Time;durP1;ratioP1;P1;durP2;ratioP2;P2;SDS_P1;SDS_P2;PMS_P1;PMS_P2;Temp;Humidity;BMP_temperature;BMP_pressure;BME280_temperature;BME280_humidity;BME280_pressure;Samples;Min_cycle;Max_cycle;Signal;HPM_P1;HPM_P2
2022/04/19 00:01:40;;;;;;;0.70;0.70;;;9.60;99.90;;;;;;4849161;29;20471;-58
2022/04/19 00:04:11;;;;;;;0.80;0.80;;;9.60;99.90;;;;;;4842604;29;20575;-56
2022/04/19 00:06:44;;;;;;;1.20;1.03;;;9.50;99.90;;;;;;4849409;29;20901;-56
2022/04/19 00:09:17;;;;;;;1.50;0.73;;;9.50;99.90;;;;;;4843401;29;20510;-60
2022/04/19 00:11:47;;;;;;;0.80;0.80;;;9.50;99.90;;;;;;4836838;29;20490;-57
2022/04/19 00:14:18;;;;;;;2.00;1.00;;;9.50;99.90;;;;;;4848444;29;20569;-57
2022/04/19 00:16:49;;;;;;;0.80;0.80;;;9.50;99.90;;;;;;4850548;29;20451;-55
2022/04/19 00:19:20;;;;;;;1.57;1.47;;;9.60;99.90;;;;;;4845469;29;20475;-58
2022/04/19 00:21:52;;;;;;;2.00;1.00;;;9.60;99.90;;;;;;4848337;29;20869;-61
2022/04/19 00:24:23;;;;;;;0.80;0.80;;;9.50;99.90;;;;;;4846940;29;20479;-58
2022/04/19 00:26:54;;;;;;;1.17;0.60;;;9.40;99.90;;;;;;4836359;29;20566;-57
2022/04/19 00:29:25;;;;;;;0.70;0.60;;;9.40;99.90;;;;;;4842032;29;20520;-60
2022/04/19 00:31:56;;;;;;;0.40;0.40;;;9.30;99.90;;;;;;4842592;29;20469;-59
2022/04/19 00:34:27;;;;;;;0.60;0.60;;;9.20;99.90;;;;;;4843879;29;20213;-52
2022/04/19 00:37:01;;;;;;;0.52;0.47;;;9.20;99.90;;;;;;4836789;29;20955;-57
2022/04/19 00:39:31;;;;;;;0.90;0.90;;;9.20;99.90;;;;;;4845316;29;20224;-56
2022/04/19 00:42:02;;;;;;;0.53;0.50;;;9.20;99.90;;;;;;4845721;29;20216;-59
2022/04/19 00:44:37;;;;;;;1.20;0.60;;;9.20;99.90;;;;;;4849743;29;20884;-64
2022/04/19 00:47:09;;;;;;;0.80;0.80;;;9.20;99.90;;;;;;4851201;29;20501;-62
2022/04/19 00:49:43;;;;;;;0.87;0.73;;;9.20;99.90;;;;;;4846372;29;20711;-60
2022/04/19 00:52:17;;;;;;;0.50;0.50;;;9.10;99.90;;;;;;4838319;29;20490;-62
2022/04/19 00:54:48;;;;;;;0.80;0.40;;;9.10;99.90;;;;;;4836538;29;20939;-58
2022/04/19 00:57:19;;;;;;;1.20;0.47;;;9.00;99.90;;;;;;4849282;29;20466;-62
2022/04/19 00:59:55;;;;;;;0.40;0.40;;;8.90;99.90;;;;;;4849254;29;20565;-63
2022/04/19 01:02:27;;;;;;;1.30;0.30;;;8.80;99.90;;;;;;4841515;29;20492;-62
2022/04/19 01:04:58;;;;;;;0.30;0.20;;;8.70;99.90;;;;;;4842222;29;20473;-62
2022/04/19 01:07:30;;;;;;;0.50;0.30;;;8.50;99.90;;;;;;4843867;29;20476;-58
2022/04/19 01:10:02;;;;;;;0.77;0.40;;;8.50;99.90;;;;;;4846733;29;20264;-59
2022/04/19 01:15:21;;;;;;;0.40;0.30;;;8.50;99.90;;;;;;4841420;29;20236;-61
2022/04/19 01:17:52;;;;;;;1.33;0.40;;;8.40;99.90;;;;;;4847811;29;20473;-61
2022/04/19 01:20:23;;;;;;;0.43;0.40;;;8.40;99.90;;;;;;4847746;29;20542;-63
2022/04/19 01:22:56;;;;;;;0.70;0.40;;;8.50;99.90;;;;;;4836121;29;20474;-62
2022/04/19 01:25:27;;;;;;;0.50;0.40;;;8.50;99.90;;;;;;4838136;29;20471;-63
2022/04/19 01:27:58;;;;;;;0.60;0.50;;;8.50;99.90;;;;;;4848108;29;20474;-64
2022/04/19 01:30:29;;;;;;;0.40;0.40;;;8.60;99.90;;;;;;4846016;29;20241;-58
2022/04/19 01:33:00;;;;;;;0.43;0.40;;;8.60;99.90;;;;;;4835810;29;20205;-57
2022/04/19 01:35:31;;;;;;;0.50;0.50;;;8.80;99.90;;;;;;4843486;29;20229;-56
2022/04/19 01:38:03;;;;;;;0.50;0.30;;;8.80;99.90;;;;;;4842575;29;20471;-60
2022/04/19 01:40:36;;;;;;;0.60;0.40;;;8.80;99.90;;;;;;4844822;29;20482;-59
2022/04/19 01:43:07;;;;;;;0.85;0.40;;;8.80;99.90;;;;;;4845755;29;20227;-57
2022/04/19 01:45:38;;;;;;;0.50;0.50;;;8.70;99.90;;;;;;4838873;29;20635;-56
2022/04/19 01:48:09;;;;;;;0.68;0.63;;;8.70;99.90;;;;;;4846571;29;20210;-56
2022/04/19 01:50:40;;;;;;;0.50;0.45;;;8.70;99.90;;;;;;4846556;29;20225;-59
2022/04/19 01:53:15;;;;;;;0.40;0.40;;;8.70;99.90;;;;;;4845569;29;20205;-62
2022/04/19 01:55:46;;;;;;;0.40;0.40;;;8.60;99.90;;;;;;4845918;29;20218;-59
2022/04/19 01:58:17;;;;;;;0.60;0.50;;;8.60;99.90;;;;;;4835721;29;20663;-59
2022/04/19 02:00:48;;;;;;;0.50;0.50;;;8.70;99.90;;;;;;4843319;29;20275;-59
2022/04/19 02:03:19;;;;;;;1.02;1.00;;;8.60;99.90;;;;;;4840428;29;20236;-60
2022/04/19 02:05:50;;;;;;;0.80;0.80;;;8.70;99.90;;;;;;4850726;29;20227;-60
2022/04/19 02:08:22;;;;;;;1.35;1.00;;;8.70;99.90;;;;;;4847738;29;20652;-60
2022/04/19 02:10:53;;;;;;;0.73;0.50;;;8.80;99.90;;;;;;4844886;29;20271;-61
2022/04/19 02:13:24;;;;;;;0.30;0.30;;;8.80;99.90;;;;;;4838963;29;20637;-60
2022/04/19 02:15:55;;;;;;;0.82;0.60;;;8.80;99.90;;;;;;4853237;29;20246;-60
2022/04/19 02:18:27;;;;;;;0.70;0.47;;;8.90;99.90;;;;;;4840819;29;20222;-60
2022/04/19 02:21:00;;;;;;;0.50;0.40;;;8.80;99.90;;;;;;4838400;29;20207;-60
2022/04/19 02:23:33;;;;;;;3.55;2.22;;;8.90;99.90;;;;;;4849087;29;20216;-61
2022/04/19 02:26:04;;;;;;;0.82;0.70;;;9.10;99.90;;;;;;4849018;29;20225;-60
2022/04/19 02:28:35;;;;;;;0.50;0.40;;;9.10;99.90;;;;;;4848878;29;20675;-60
2022/04/19 02:31:05;;;;;;;0.60;0.50;;;9.10;99.90;;;;;;4844279;29;20237;-60
2022/04/19 02:33:36;;;;;;;0.57;0.57;;;9.00;99.90;;;;;;4839724;29;20210;-60
2022/04/19 02:36:07;;;;;;;0.53;0.50;;;8.90;99.90;;;;;;4838254;29;20206;-60
2022/04/19 02:38:40;;;;;;;1.05;0.40;;;9.00;99.90;;;;;;4840281;29;20466;-60
2022/04/19 02:41:11;;;;;;;0.38;0.38;;;8.90;99.90;;;;;;4847709;29;20213;-59
2022/04/19 02:43:42;;;;;;;0.60;0.50;;;8.80;99.90;;;;;;4837255;29;20205;-61
2022/04/19 02:46:13;;;;;;;2.25;0.47;;;8.70;99.90;;;;;;4846694;29;20215;-60
2022/04/19 02:48:45;;;;;;;1.35;0.70;;;8.60;99.90;;;;;;4847403;29;20493;-60
2022/04/19 02:51:15;;;;;;;0.70;0.65;;;8.60;99.90;;;;;;4853644;29;20224;-60
2022/04/19 02:53:48;;;;;;;1.25;0.60;;;8.50;99.90;;;;;;4846826;29;20228;-60
2022/04/19 02:56:18;;;;;;;1.23;0.90;;;8.40;99.90;;;;;;4848317;29;20217;-60
2022/04/19 02:58:49;;;;;;;0.60;0.60;;;8.30;99.90;;;;;;4847774;29;20224;-60
2022/04/19 03:01:20;;;;;;;0.85;0.70;;;8.20;99.90;;;;;;4844519;29;20222;-61
2022/04/19 03:03:51;;;;;;;0.70;0.70;;;8.20;99.90;;;;;;4843022;29;20218;-61
2022/04/19 03:06:22;;;;;;;0.40;0.40;;;8.10;99.90;;;;;;4852790;29;20232;-60
2022/04/19 03:08:54;;;;;;;1.30;1.20;;;8.10;99.90;;;;;;4835130;29;20240;-60
2022/04/19 03:11:25;;;;;;;2.03;1.83;;;8.00;99.90;;;;;;4844876;29;20255;-61
2022/04/19 03:13:59;;;;;;;1.65;1.55;;;8.00;99.90;;;;;;4839391;29;20228;-60
2022/04/19 03:16:30;;;;;;;1.80;1.70;;;7.90;99.90;;;;;;4845221;29;20217;-61
2022/04/19 03:19:01;;;;;;;1.80;1.70;;;7.90;99.90;;;;;;4839081;29;20202;-66
2022/04/19 03:21:32;;;;;;;1.30;1.20;;;7.90;99.90;;;;;;4841737;29;20209;-60
2022/04/19 03:29:45;;;;;;;1.65;1.08;;;7.90;99.90;;;;;;4834282;29;20213;-60
2022/04/19 03:32:15;;;;;;;0.80;0.80;;;8.00;99.90;;;;;;4848944;29;20548;-61
2022/04/19 03:34:46;;;;;;;0.90;0.63;;;8.00;99.90;;;;;;4843908;29;20206;-60
2022/04/19 03:37:17;;;;;;;0.70;0.70;;;8.00;99.90;;;;;;4845716;29;20213;-61
2022/04/19 03:39:50;;;;;;;1.20;0.93;;;8.10;99.90;;;;;;4847279;29;20209;-62
2022/04/19 03:42:21;;;;;;;1.10;1.00;;;8.00;99.90;;;;;;4842991;29;20230;-59
2022/04/19 03:44:51;;;;;;;1.23;0.90;;;8.00;99.90;;;;;;4845051;29;20567;-60
2022/04/19 03:47:22;;;;;;;1.05;0.60;;;8.00;99.90;;;;;;4847528;29;20534;-60
2022/04/19 03:49:53;;;;;;;5.65;1.05;;;8.00;99.90;;;;;;4851675;29;20206;-60
2022/04/19 03:52:24;;;;;;;0.85;0.70;;;8.00;99.90;;;;;;4843745;29;20233;-60
2022/04/19 03:54:57;;;;;;;0.98;0.70;;;8.00;99.90;;;;;;4851192;29;20219;-60
2022/04/19 03:57:28;;;;;;;0.90;0.90;;;8.00;99.90;;;;;;4845622;29;20210;-61
2022/04/19 03:59:59;;;;;;;0.70;0.63;;;7.90;99.90;;;;;;4842965;29;20217;-60
2022/04/19 04:02:30;;;;;;;0.70;0.70;;;7.90;99.90;;;;;;4846166;29;20221;-60
2022/04/19 04:05:01;;;;;;;0.85;0.77;;;7.90;99.90;;;;;;4847283;29;20225;-60
2022/04/19 04:07:36;;;;;;;0.65;0.65;;;7.90;99.90;;;;;;4841837;29;20567;-61
2022/04/19 04:10:10;;;;;;;0.82;0.82;;;7.90;99.90;;;;;;4837198;29;20255;-60
2022/04/19 04:12:41;;;;;;;0.60;0.60;;;7.90;99.90;;;;;;4846794;29;20237;-60
2022/04/19 04:15:11;;;;;;;1.85;0.60;;;8.00;99.90;;;;;;4847146;29;20213;-60
2022/04/19 04:17:43;;;;;;;1.00;1.00;;;8.00;99.90;;;;;;4846663;29;20218;-60
2022/04/19 04:20:14;;;;;;;0.80;0.80;;;8.00;99.90;;;;;;4845546;29;20206;-60
2022/04/19 04:22:45;;;;;;;0.60;0.60;;;8.10;99.90;;;;;;4845601;29;20202;-60
2022/04/19 04:25:22;;;;;;;0.90;0.90;;;8.10;99.90;;;;;;4847738;29;20213;-60
2022/04/19 04:27:53;;;;;;;0.90;0.90;;;8.00;99.90;;;;;;4840671;29;20304;-60
2022/04/19 04:30:24;;;;;;;2.78;1.10;;;8.00;99.90;;;;;;4850722;29;20214;-60
2022/04/19 04:32:55;;;;;;;1.20;1.10;;;8.00;99.90;;;;;;4850508;29;20237;-60
2022/04/19 04:35:25;;;;;;;1.00;1.00;;;8.00;99.90;;;;;;4845834;29;20228;-60
2022/04/19 04:37:56;;;;;;;1.05;0.95;;;8.00;99.90;;;;;;4846570;29;20225;-60
2022/04/19 04:40:28;;;;;;;0.90;0.90;;;8.00;99.90;;;;;;4842496;29;20209;-60
2022/04/19 04:42:59;;;;;;;0.95;0.80;;;8.00;99.90;;;;;;4836408;29;20326;-60
2022/04/19 04:45:30;;;;;;;1.00;0.90;;;7.90;99.90;;;;;;4846008;29;20217;-60
2022/04/19 04:50:48;;;;;;;1.42;1.33;;;7.80;99.90;;;;;;4840101;29;20225;-60
2022/04/19 04:53:19;;;;;;;0.90;0.90;;;7.80;99.90;;;;;;4844668;29;20198;-60
2022/04/19 04:55:52;;;;;;;1.50;1.40;;;7.90;99.90;;;;;;4833729;29;20217;-60
2022/04/19 04:58:23;;;;;;;1.73;1.63;;;7.90;99.90;;;;;;4841473;29;20228;-60
2022/04/19 05:00:54;;;;;;;2.42;2.22;;;8.00;99.90;;;;;;4833557;29;20210;-60
2022/04/19 05:03:25;;;;;;;2.30;2.10;;;8.00;99.90;;;;;;4838356;29;20205;-60
2022/04/19 05:05:58;;;;;;;1.77;1.67;;;8.10;99.90;;;;;;4835913;29;20211;-60
2022/04/19 05:08:29;;;;;;;2.15;1.90;;;8.10;99.90;;;;;;4840444;29;20289;-60
2022/04/19 05:11:02;;;;;;;1.73;1.63;;;7.90;99.90;;;;;;4833942;29;20635;-60
2022/04/19 05:13:32;;;;;;;2.50;2.30;;;7.90;99.90;;;;;;4844408;29;20210;-60
2022/04/19 05:16:04;;;;;;;3.63;2.45;;;7.90;99.90;;;;;;4841275;29;20220;-60
2022/04/19 05:18:34;;;;;;;3.00;1.90;;;7.80;99.90;;;;;;4847124;29;22315;-60
2022/04/19 05:21:07;;;;;;;3.00;2.80;;;7.80;99.90;;;;;;4843693;29;20268;-60
2022/04/19 05:23:38;;;;;;;4.55;1.80;;;7.80;99.90;;;;;;4846456;29;20209;-60
2022/04/19 05:26:11;;;;;;;1.73;1.60;;;7.80;99.90;;;;;;4848987;29;20300;-60
2022/04/19 05:28:41;;;;;;;1.38;1.30;;;7.80;99.90;;;;;;4844214;29;20272;-60
2022/04/19 05:31:12;;;;;;;1.70;1.60;;;7.80;99.90;;;;;;4847053;29;20218;-60
2022/04/19 05:33:43;;;;;;;2.67;1.02;;;7.70;99.90;;;;;;4840842;29;20273;-60
2022/04/19 05:36:14;;;;;;;1.00;0.90;;;7.80;99.90;;;;;;4848381;29;20201;-60
2022/04/19 05:38:45;;;;;;;1.20;1.10;;;7.80;99.90;;;;;;4847478;29;20213;-60
2022/04/19 05:41:17;;;;;;;1.00;0.90;;;7.70;99.90;;;;;;4845451;29;20221;-61
2022/04/19 05:43:49;;;;;;;1.48;0.93;;;7.70;99.90;;;;;;4849295;29;20270;-60
2022/04/19 05:46:23;;;;;;;0.93;0.93;;;7.80;99.90;;;;;;4847990;29;20287;-60
2022/04/19 05:48:54;;;;;;;1.50;0.80;;;7.70;99.90;;;;;;4847344;29;20213;-60
2022/04/19 05:51:25;;;;;;;1.15;1.00;;;7.80;99.90;;;;;;4850040;29;20210;-60
2022/04/19 05:53:56;;;;;;;1.02;0.90;;;7.80;99.90;;;;;;4853944;29;20205;-60
2022/04/19 05:56:33;;;;;;;1.00;1.00;;;7.70;99.90;;;;;;4845683;29;20686;-60
2022/04/19 05:59:04;;;;;;;0.80;0.80;;;7.80;99.90;;;;;;4840689;29;20553;-60
2022/04/19 06:07:07;;;;;;;0.95;0.85;;;7.60;99.90;;;;;;4849334;29;20228;-60
2022/04/19 06:09:37;;;;;;;1.10;1.00;;;7.60;99.90;;;;;;4848459;29;20714;-60
2022/04/19 06:12:10;;;;;;;1.05;0.90;;;7.60;99.90;;;;;;4851276;29;20542;-61
2022/04/19 06:14:41;;;;;;;1.50;0.95;;;7.60;99.90;;;;;;4849463;29;20210;-61
2022/04/19 06:17:15;;;;;;;0.80;0.80;;;7.60;99.90;;;;;;4847081;29;20321;-60
2022/04/19 06:19:48;;;;;;;1.00;1.00;;;7.50;99.90;;;;;;4853086;29;20213;-61
2022/04/19 06:22:18;;;;;;;0.90;0.90;;;7.50;99.90;;;;;;4852636;29;20217;-61
2022/04/19 06:24:49;;;;;;;0.82;0.82;;;7.40;99.90;;;;;;4849924;29;20243;-60
2022/04/19 06:27:21;;;;;;;1.65;0.75;;;7.40;99.90;;;;;;4852195;29;20205;-61
2022/04/19 06:29:53;;;;;;;0.80;0.80;;;7.30;99.90;;;;;;4853285;29;20221;-60
2022/04/19 06:32:24;;;;;;;1.42;1.30;;;7.30;99.90;;;;;;4851415;29;20248;-61
2022/04/19 06:34:54;;;;;;;1.13;1.02;;;7.40;99.90;;;;;;4842316;29;20272;-60
2022/04/19 06:37:26;;;;;;;1.02;1.02;;;7.40;99.90;;;;;;4852518;29;20226;-61
2022/04/19 06:40:02;;;;;;;1.00;1.00;;;7.40;99.90;;;;;;4839907;29;20217;-60
2022/04/19 06:42:35;;;;;;;1.77;1.17;;;7.50;99.90;;;;;;4851808;29;20215;-61
2022/04/19 06:45:06;;;;;;;1.27;1.17;;;7.50;99.90;;;;;;4852810;29;20220;-61
2022/04/19 06:47:38;;;;;;;0.90;0.90;;;7.50;99.90;;;;;;4851750;29;20220;-61
2022/04/19 06:50:10;;;;;;;1.30;1.20;;;7.50;99.90;;;;;;4853089;29;20209;-60
2022/04/19 06:52:40;;;;;;;0.98;0.98;;;7.50;99.90;;;;;;4851112;29;20256;-60
2022/04/19 06:55:11;;;;;;;1.40;1.00;;;7.60;99.90;;;;;;4851980;29;20205;-61
2022/04/19 06:57:44;;;;;;;0.82;0.82;;;7.50;99.90;;;;;;4849025;29;20209;-60
2022/04/19 07:00:16;;;;;;;1.10;1.10;;;7.50;99.90;;;;;;4842181;29;20213;-60
2022/04/19 07:02:48;;;;;;;0.98;0.90;;;7.50;99.90;;;;;;4849955;29;20225;-61
2022/04/19 07:05:19;;;;;;;1.45;1.00;;;7.40;99.90;;;;;;4848608;29;20253;-60
2022/04/19 07:07:51;;;;;;;0.80;0.80;;;7.40;99.90;;;;;;4847025;29;20237;-61
2022/04/19 07:10:22;;;;;;;1.63;1.08;;;7.30;99.90;;;;;;4852169;29;20583;-61
2022/04/19 07:12:54;;;;;;;1.27;1.15;;;7.40;99.90;;;;;;4846125;29;20241;-61
2022/04/19 07:15:25;;;;;;;1.40;1.30;;;7.40;99.90;;;;;;4850756;29;20220;-60
2022/04/19 07:17:56;;;;;;;0.90;0.90;;;7.50;99.90;;;;;;4851786;29;20551;-60
2022/04/19 07:28:55;;;;;;;1.30;1.20;;;7.50;99.90;;;;;;4843565;29;20214;-61
2022/04/19 07:31:25;;;;;;;1.00;1.00;;;7.50;99.90;;;;;;4834813;29;20209;-61
2022/04/19 07:33:56;;;;;;;1.15;1.05;;;7.60;99.90;;;;;;4849079;29;20237;-60
2022/04/19 07:36:27;;;;;;;1.35;1.25;;;7.60;99.90;;;;;;4851410;29;20665;-61
2022/04/19 07:38:59;;;;;;;2.25;1.52;;;7.60;99.90;;;;;;4850943;29;20221;-60
2022/04/19 07:41:29;;;;;;;1.73;1.63;;;7.60;99.90;;;;;;4852484;29;20231;-60
2022/04/19 07:44:02;;;;;;;1.85;1.40;;;7.60;99.90;;;;;;4850665;29;20220;-58
2022/04/19 07:46:33;;;;;;;1.20;1.10;;;7.50;99.90;;;;;;4851939;29;20315;-60
2022/04/19 07:49:05;;;;;;;1.38;1.33;;;7.50;99.90;;;;;;4850708;29;20256;-61
2022/04/19 07:51:36;;;;;;;1.60;1.50;;;7.50;99.90;;;;;;4849219;29;20617;-61
2022/04/19 07:54:07;;;;;;;1.65;1.55;;;7.60;99.90;;;;;;4850952;29;20236;-60
2022/04/19 07:56:38;;;;;;;1.80;1.70;;;7.60;99.90;;;;;;4851717;29;20231;-60
2022/04/19 07:59:12;;;;;;;1.40;1.30;;;7.60;99.90;;;;;;4848374;29;20205;-60
2022/04/19 08:01:46;;;;;;;1.60;1.50;;;7.50;99.90;;;;;;4849429;29;20220;-61
2022/04/19 08:04:17;;;;;;;1.23;1.23;;;7.60;99.90;;;;;;4850347;29;20302;-60
2022/04/19 08:06:47;;;;;;;1.30;1.20;;;7.60;99.90;;;;;;4849606;29;20243;-61
2022/04/19 08:09:18;;;;;;;1.20;1.10;;;7.60;99.90;;;;;;4850800;29;20210;-60
2022/04/19 08:11:51;;;;;;;1.05;1.00;;;7.60;99.90;;;;;;4845454;29;20212;-61
2022/04/19 08:14:23;;;;;;;3.08;1.40;;;7.60;99.90;;;;;;4850413;29;20240;-61
2022/04/19 08:16:54;;;;;;;3.13;1.20;;;7.60;99.90;;;;;;4850394;29;20217;-60
2022/04/19 08:19:25;;;;;;;1.40;1.23;;;7.60;99.90;;;;;;4850212;29;20206;-60
2022/04/19 08:21:57;;;;;;;1.80;1.25;;;7.50;99.90;;;;;;4850249;29;20218;-61
2022/04/19 08:24:28;;;;;;;1.45;1.30;;;7.60;99.90;;;;;;4851035;29;20303;-60
2022/04/19 08:26:59;;;;;;;0.93;0.93;;;7.60;99.90;;;;;;4851647;29;20201;-61
2022/04/19 08:29:31;;;;;;;1.88;1.55;;;7.60;99.90;;;;;;4850103;29;20209;-61
2022/04/19 08:32:02;;;;;;;1.17;1.10;;;7.60;99.90;;;;;;4849713;29;20217;-61
2022/04/19 08:34:33;;;;;;;1.35;1.30;;;7.60;99.90;;;;;;4850829;29;20585;-60
2022/04/19 08:37:04;;;;;;;1.30;1.20;;;7.70;99.90;;;;;;4850834;29;20227;-61
2022/04/19 08:39:36;;;;;;;1.10;1.00;;;7.70;99.90;;;;;;4849776;29;20220;-61
2022/04/19 08:42:07;;;;;;;1.23;1.13;;;7.70;99.90;;;;;;4850980;29;20205;-61
2022/04/19 08:44:41;;;;;;;1.00;1.00;;;7.70;99.90;;;;;;4849618;29;20197;-60
2022/04/19 08:47:13;;;;;;;1.00;1.00;;;7.70;99.90;;;;;;4850743;29;20224;-61
2022/04/19 08:49:46;;;;;;;1.23;1.13;;;7.60;99.90;;;;;;4850599;29;20235;-60
2022/04/19 08:52:18;;;;;;;1.35;1.25;;;7.60;99.90;;;;;;4846442;29;20211;-60
2022/04/19 08:57:37;;;;;;;1.23;1.15;;;7.70;99.90;;;;;;4849668;29;20217;-61
2022/04/19 09:00:10;;;;;;;1.48;1.38;;;7.70;99.90;;;;;;4847380;29;20233;-60
2022/04/19 09:02:41;;;;;;;1.35;1.25;;;7.80;99.90;;;;;;4844449;29;20206;-61
2022/04/19 09:05:19;;;;;;;1.50;1.40;;;7.80;99.90;;;;;;4848522;29;20244;-61
2022/04/19 09:07:54;;;;;;;1.30;1.20;;;7.80;99.90;;;;;;4850269;29;20217;-60
2022/04/19 09:10:30;;;;;;;2.38;2.17;;;7.80;99.90;;;;;;4849703;29;20255;-61
2022/04/19 09:13:04;;;;;;;1.50;1.40;;;7.80;99.90;;;;;;4849820;29;20239;-60
2022/04/19 09:15:39;;;;;;;1.13;1.10;;;7.80;99.90;;;;;;4850417;29;20235;-61
2022/04/19 09:18:16;;;;;;;1.90;1.42;;;7.70;99.90;;;;;;4852114;29;20215;-61
2022/04/19 09:20:51;;;;;;;1.48;1.20;;;7.70;99.90;;;;;;4853688;29;20225;-61
2022/04/19 09:23:22;;;;;;;1.20;1.15;;;7.70;99.90;;;;;;4853166;29;20273;-60
2022/04/19 09:25:54;;;;;;;1.27;1.10;;;7.70;99.90;;;;;;4844508;29;20213;-60
2022/04/19 09:28:27;;;;;;;1.98;1.45;;;7.60;99.90;;;;;;4852862;29;20209;-60
2022/04/19 09:31:01;;;;;;;1.10;1.10;;;7.60;99.90;;;;;;4853046;29;20296;-60
2022/04/19 09:33:32;;;;;;;1.00;1.00;;;7.60;99.90;;;;;;4854100;29;20209;-60
2022/04/19 09:36:04;;;;;;;1.00;1.00;;;7.50;99.90;;;;;;4853978;29;20213;-60
2022/04/19 09:38:41;;;;;;;1.00;1.00;;;7.50;99.90;;;;;;4845172;29;20296;-60
2022/04/19 09:41:12;;;;;;;0.70;0.70;;;7.50;99.90;;;;;;4852557;29;20629;-60
2022/04/19 09:44:10;;;;;;;1.05;0.98;;;7.40;99.90;;;;;;4852644;29;20280;-60
2022/04/19 09:47:01;;;;;;;1.50;0.90;;;7.40;99.90;;;;;;4853427;29;20231;-60
2022/04/19 09:49:49;;;;;;;0.77;0.77;;;7.30;99.90;;;;;;4853369;29;20229;-60
2022/04/19 09:52:48;;;;;;;0.63;0.60;;;7.30;99.90;;;;;;4852446;29;20213;-60
2022/04/19 09:55:20;;;;;;;0.77;0.70;;;7.30;99.90;;;;;;4852539;29;20233;-60
2022/04/19 09:57:52;;;;;;;1.15;0.60;;;7.30;99.90;;;;;;4851668;29;20549;-60
2022/04/19 10:00:23;;;;;;;0.77;0.50;;;7.30;99.90;;;;;;4852553;29;20198;-60
2022/04/19 10:08:32;;;;;;;0.40;0.40;;;7.20;99.90;;;;;;4852078;29;20213;-60
2022/04/19 10:11:03;;;;;;;1.63;0.60;;;7.10;99.90;;;;;;4852087;29;20329;-61
2022/04/19 10:13:35;;;;;;;0.30;0.20;;;7.10;99.90;;;;;;4851920;29;20228;-61
2022/04/19 10:16:12;;;;;;;1.65;0.77;;;7.10;99.90;;;;;;4852232;29;20243;-60
2022/04/19 10:18:48;;;;;;;0.70;0.40;;;7.10;99.90;;;;;;4847542;29;20638;-61
2022/04/19 10:21:21;;;;;;;0.60;0.60;;;7.10;99.90;;;;;;4853196;29;20224;-60
2022/04/19 10:23:52;;;;;;;0.75;0.52;;;7.10;99.90;;;;;;4852460;29;20349;-60
2022/04/19 10:26:24;;;;;;;0.80;0.40;;;7.10;99.90;;;;;;4844113;29;20213;-60
2022/04/19 10:28:58;;;;;;;0.40;0.40;;;7.10;99.90;;;;;;4851580;29;20213;-61
2022/04/19 10:31:35;;;;;;;0.43;0.43;;;7.10;99.90;;;;;;4852057;29;20243;-60
2022/04/19 10:34:08;;;;;;;1.25;0.65;;;7.00;99.90;;;;;;4853149;29;20294;-60
2022/04/19 10:36:40;;;;;;;1.02;0.50;;;7.10;99.90;;;;;;4852458;29;20225;-60
2022/04/19 10:39:45;;;;;;;0.73;0.73;;;7.20;99.90;;;;;;4852502;29;20227;-61
2022/04/19 10:42:29;;;;;;;0.70;0.50;;;7.10;99.90;;;;;;4785442;30;20224;-60
2022/04/19 10:45:25;;;;;;;0.65;0.65;;;7.10;99.90;;;;;;4793149;30;20306;-60
2022/04/19 10:48:08;;;;;;;0.43;0.40;;;7.10;99.90;;;;;;4795745;30;20266;-60
2022/04/19 10:50:44;;;;;;;0.60;0.60;;;7.00;99.90;;;;;;4794549;30;20219;-60
2022/04/19 10:53:15;;;;;;;0.55;0.32;;;6.90;99.90;;;;;;4795155;30;20276;-60
2022/04/19 10:56:02;;;;;;;0.98;0.85;;;6.90;99.90;;;;;;4796298;30;20716;-60
2022/04/19 10:58:50;;;;;;;0.50;0.50;;;6.80;99.90;;;;;;4790511;30;20615;-60
2022/04/19 11:01:31;;;;;;;0.43;0.43;;;6.80;99.90;;;;;;4787323;30;20542;-60
2022/04/19 11:04:02;;;;;;;0.82;0.75;;;6.80;99.90;;;;;;4795491;30;20303;-60
2022/04/19 11:06:40;;;;;;;1.58;0.55;;;6.80;99.90;;;;;;4795362;30;20219;-60
2022/04/19 11:09:22;;;;;;;0.90;0.90;;;6.80;99.90;;;;;;4794765;30;20215;-60
2022/04/19 11:11:56;;;;;;;0.60;0.60;;;6.80;99.90;;;;;;4773962;30;20223;-60
2022/04/19 11:14:40;;;;;;;1.33;0.93;;;6.80;99.90;;;;;;4783321;30;20676;-60
2022/04/19 11:17:29;;;;;;;1.00;0.90;;;6.70;99.90;;;;;;4805748;29;20321;-60
2022/04/19 11:20:14;;;;;;;0.77;0.55;;;6.70;99.90;;;;;;4852180;29;20589;-60
2022/04/19 11:23:01;;;;;;;0.93;0.82;;;6.70;99.90;;;;;;4851600;29;20213;-60
2022/04/19 11:25:40;;;;;;;0.90;0.90;;;6.70;99.90;;;;;;4852444;29;20220;-60
2022/04/19 11:28:21;;;;;;;0.93;0.90;;;6.70;99.90;;;;;;4849571;29;20227;-60
2022/04/19 11:31:12;;;;;;;1.70;1.15;;;6.80;99.90;;;;;;4849060;29;20224;-60
2022/04/19 11:33:43;;;;;;;1.80;0.90;;;6.80;99.90;;;;;;4851049;29;20220;-60
2022/04/19 11:36:15;;;;;;;1.98;0.93;;;6.90;99.90;;;;;;4851903;29;20229;-60
2022/04/19 11:38:51;;;;;;;2.47;0.80;;;6.90;99.90;;;;;;4851586;29;20217;-60
2022/04/19 11:47:02;;;;;;;2.58;0.93;;;7.10;99.90;;;;;;4820492;29;20224;-60
2022/04/19 11:49:38;;;;;;;0.90;0.90;;;7.00;99.90;;;;;;4850836;29;20210;-60
2022/04/19 11:52:14;;;;;;;1.08;1.05;;;7.10;99.90;;;;;;4846315;29;20682;-60
2022/04/19 11:54:46;;;;;;;0.93;0.88;;;7.00;99.90;;;;;;4848694;29;20220;-60
2022/04/19 11:57:17;;;;;;;0.93;0.93;;;7.00;99.90;;;;;;4850771;29;20213;-59
2022/04/19 11:59:52;;;;;;;1.10;1.05;;;7.00;99.90;;;;;;4846151;29;20209;-60
2022/04/19 12:02:23;;;;;;;0.70;0.70;;;7.00;99.90;;;;;;4849116;29;20216;-60
2022/04/19 12:04:56;;;;;;;1.70;1.15;;;7.00;99.90;;;;;;4851662;29;20213;-59
2022/04/19 12:07:28;;;;;;;1.33;1.23;;;7.00;99.90;;;;;;4850491;29;20223;-59
2022/04/19 12:10:01;;;;;;;1.00;1.00;;;7.00;99.90;;;;;;4851349;29;20247;-59
2022/04/19 12:12:32;;;;;;;1.80;1.55;;;7.00;99.90;;;;;;4846033;29;20236;-59
2022/04/19 12:15:03;;;;;;;1.00;1.00;;;7.00;99.90;;;;;;4834163;29;20248;-58
2022/04/19 12:17:34;;;;;;;1.45;1.35;;;7.00;99.90;;;;;;4839792;29;20216;-57
2022/04/19 12:20:07;;;;;;;1.20;1.10;;;6.90;99.90;;;;;;4848617;29;20307;-57
2022/04/19 12:22:38;;;;;;;1.00;1.00;;;6.90;99.90;;;;;;4840747;29;20229;-57
2022/04/19 12:25:11;;;;;;;0.90;0.90;;;6.90;99.90;;;;;;4847992;29;20223;-58
2022/04/19 12:27:41;;;;;;;1.95;1.05;;;7.00;99.90;;;;;;4839046;29;20228;-58
2022/04/19 12:30:13;;;;;;;1.33;1.15;;;6.90;99.90;;;;;;4848429;29;20213;-59
2022/04/19 12:32:55;;;;;;;1.10;0.90;;;7.00;99.90;;;;;;4846398;29;20293;-58
2022/04/19 12:35:27;;;;;;;0.75;0.75;;;7.00;99.90;;;;;;4851846;29;20241;-59
2022/04/19 12:38:08;;;;;;;1.38;1.20;;;7.00;99.90;;;;;;4849270;29;20328;-59
2022/04/19 12:40:44;;;;;;;0.90;0.80;;;7.00;99.90;;;;;;4851200;29;20244;-59
2022/04/19 12:43:17;;;;;;;0.95;0.95;;;7.10;99.90;;;;;;4849232;29;20228;-58
2022/04/19 12:45:48;;;;;;;0.90;0.90;;;7.00;99.90;;;;;;4850922;29;20220;-59
2022/04/19 12:48:20;;;;;;;1.63;1.00;;;7.10;99.90;;;;;;4843234;29;20205;-60
2022/04/19 12:51:02;;;;;;;1.20;1.10;;;7.10;99.90;;;;;;4850234;29;20217;-60
2022/04/19 12:53:35;;;;;;;0.88;0.88;;;7.10;99.90;;;;;;4842760;29;20294;-60
2022/04/19 12:56:15;;;;;;;1.00;0.90;;;7.10;99.90;;;;;;4850139;29;20269;-60
2022/04/19 12:58:46;;;;;;;1.08;0.98;;;7.10;99.90;;;;;;4844446;29;20593;-60
2022/04/19 13:01:17;;;;;;;1.50;1.05;;;7.10;99.90;;;;;;4843987;29;20213;-60
2022/04/19 13:03:48;;;;;;;3.00;1.65;;;7.10;99.90;;;;;;4849555;29;20213;-60
2022/04/19 13:14:45;;;;;;;1.00;1.00;;;7.10;99.90;;;;;;4849340;29;20209;-59
2022/04/19 13:17:26;;;;;;;1.15;1.05;;;7.10;99.90;;;;;;4849303;29;20288;-60
2022/04/19 13:19:57;;;;;;;1.20;0.82;;;7.20;99.90;;;;;;4850656;29;20235;-60
2022/04/19 13:22:28;;;;;;;1.80;1.30;;;7.10;99.90;;;;;;4837542;29;20224;-60
2022/04/19 13:24:59;;;;;;;1.40;1.30;;;7.10;99.90;;;;;;4851235;29;20205;-60
2022/04/19 13:27:35;;;;;;;1.52;1.42;;;7.20;99.90;;;;;;4848510;29;20796;-59
2022/04/19 13:30:09;;;;;;;1.70;1.60;;;7.20;99.90;;;;;;4850531;29;20220;-59
2022/04/19 13:32:41;;;;;;;1.40;1.30;;;7.30;99.90;;;;;;4838618;29;20232;-59
2022/04/19 13:35:12;;;;;;;2.40;1.60;;;7.20;99.90;;;;;;4849583;29;20294;-60
2022/04/19 13:40:30;;;;;;;1.65;1.40;;;7.20;99.90;;;;;;4850325;29;20209;-61
2022/04/19 13:43:02;;;;;;;1.48;1.38;;;7.20;99.90;;;;;;4849595;29;20213;-60
2022/04/19 13:45:33;;;;;;;1.58;1.48;;;7.20;99.90;;;;;;4850445;29;20209;-60
2022/04/19 13:48:08;;;;;;;1.10;1.10;;;7.10;99.90;;;;;;4848515;29;20276;-60
2022/04/19 13:50:39;;;;;;;1.50;1.40;;;7.10;99.90;;;;;;4848474;29;20213;-60
2022/04/19 13:53:10;;;;;;;1.70;1.60;;;7.10;99.90;;;;;;4842954;29;20313;-60
2022/04/19 13:55:41;;;;;;;4.50;1.40;;;7.20;99.90;;;;;;4848435;29;20217;-60
2022/04/19 13:58:14;;;;;;;1.63;1.10;;;7.20;99.90;;;;;;4847263;29;20206;-60
2022/04/19 14:00:47;;;;;;;1.40;1.30;;;7.20;99.90;;;;;;4849669;29;20620;-60
2022/04/19 14:03:18;;;;;;;1.58;1.48;;;7.20;99.90;;;;;;4832236;29;20226;-60
2022/04/19 14:05:49;;;;;;;1.60;1.50;;;7.20;99.90;;;;;;4849424;29;20217;-60
2022/04/19 14:08:19;;;;;;;1.50;1.40;;;7.10;99.90;;;;;;4841342;29;20214;-60
2022/04/19 14:10:50;;;;;;;1.58;1.48;;;7.20;99.90;;;;;;4849075;29;20245;-60
2022/04/19 14:13:22;;;;;;;1.70;1.40;;;7.20;99.90;;;;;;4853171;29;20302;-60
2022/04/19 14:15:53;;;;;;;1.60;1.50;;;7.20;99.90;;;;;;4853454;29;20220;-60
2022/04/19 14:18:24;;;;;;;1.65;1.00;;;7.10;99.90;;;;;;4840657;29;20210;-60